Taboleiro Grande, Brazil
Current Conditions -  °F | °C
As of 11:00 AM on Thursday 25 Dec 2014 (Local Time) from SBJU Reporting Station
Scattered Clouds Scattered Clouds  
Wind Chill: 88°   Ceiling: Unl
Heat Index: 93°   Visibility: 6mi
Dew Point: 70°   Wind: 8mph
Humidity: 55%   Direction: 190°S
Pressure: 30.06"   Gusts: NA
Location:  5.93°S, 38.04°W
Report Text: SBJU 251400Z 19007KT 9999 SCT022 31/21 Q1018
Loading
Personal Weather Stations






























Interactive Weather Map New forecast layout! Learn more

10-Day Weather Forecast

Advertisements
Track Severe Weather on mobile